Time;durP1;ratioP1;P1;durP2;ratioP2;P2;SDS_P1;SDS_P2;PMS_P1;PMS_P2;Temp;Humidity;BMP_temperature;BMP_pressure;BME280_temperature;BME280_humidity;BME280_pressure;Samples;Min_cycle;Max_cycle;Signal;HPM_P1;HPM_P2
2022/12/21 00:02:14;;;;;;;;;;;;;;;;;;7365311;19;818;-64
2022/12/21 00:04:43;;;;;;;;;;;;;;;;;;7363390;19;2133;-65
2022/12/21 00:07:11;;;;;;;;;;;;;;;;;;7362647;19;1837;-65
2022/12/21 00:09:39;;;;;;;;;;;;;;;;;;7360608;19;1352;-65
2022/12/21 00:12:08;;;;;;;;;;;;;;;;;;7363538;19;799;-65
2022/12/21 00:14:36;;;;;;;;;;;;;;;;;;7366652;19;1820;-64
2022/12/21 00:17:04;;;;;;;;;;;;;;;;;;7362767;19;865;-66
2022/12/21 00:19:32;;;;;;;;;;;;;;;;;;7366652;19;1266;-65
2022/12/21 00:22:00;;;;;;;;;;;;;;;;;;7370264;19;803;-65
2022/12/21 00:24:29;;;;;;;;;;;;;;;;;;7370274;19;870;-66
2022/12/21 00:26:58;;;;;;;;;;;;;;;;;;7368098;19;1854;-66
2022/12/21 00:29:26;;;;;;;;;;;;;;;;;;7366909;19;1266;-65
2022/12/21 00:31:54;;;;;;;;;;;;;;;;;;7372151;19;1866;-67
2022/12/21 00:34:22;;;;;;;;;;;;;;;;;;7369598;19;802;-66
2022/12/21 00:36:53;;;;;;;;;;;;;;;;;;7370614;19;773;-66
2022/12/21 00:39:21;;;;;;;;;;;;;;;;;;7366886;19;1346;-65
2022/12/21 00:41:49;;;;;;;;;;;;;;;;;;7371512;19;1798;-67
2022/12/21 00:44:17;;;;;;;;;;;;;;;;;;7369188;19;861;-66
2022/12/21 00:46:47;;;;;;;;;;;;;;;;;;7369504;19;1854;-65
2022/12/21 00:49:15;;;;;;;;;;;;;;;;;;7367968;19;1273;-65
2022/12/21 00:51:43;;;;;;;;;;;;;;;;;;7370330;19;789;-65
2022/12/21 00:54:12;;;;;;;;;;;;;;;;;;7368169;19;843;-66
2022/12/21 00:56:43;;;;;;;;;;;;;;;;;;7369433;19;783;-66
2022/12/21 00:59:11;;;;;;;;;;;;;;;;;;7367263;19;2087;-66
2022/12/21 01:01:39;;;;;;;;;;;;;;;;;;7369515;19;812;-66
2022/12/21 01:04:07;;;;;;;;;;;;;;;;;;7367403;19;800;-66
2022/12/21 01:06:36;;;;;;;;;;;;;;;;;;7369547;19;838;-66
2022/12/21 01:09:05;;;;;;;;;;;;;;;;;;7364246;19;1854;-67
2022/12/21 01:11:33;;;;;;;;;;;;;;;;;;7368839;19;1882;-66
2022/12/21 01:14:01;;;;;;;;;;;;;;;;;;7368624;19;790;-67
2022/12/21 01:16:29;;;;;;;;;;;;;;;;;;7367088;19;808;-67
2022/12/21 01:18:58;;;;;;;;;;;;;;;;;;7365722;19;1256;-67
2022/12/21 01:21:29;;;;;;;;;;;;;;;;;;7369036;19;846;-68
2022/12/21 01:23:57;;;;;;;;;;;;;;;;;;7369287;19;858;-67
2022/12/21 01:26:25;;;;;;;;;;;;;;;;;;7366795;19;817;-67
2022/12/21 01:28:53;;;;;;;;;;;;;;;;;;7365112;19;1851;-67
2022/12/21 01:31:21;;;;;;;;;;;;;;;;;;7367179;19;807;-66
2022/12/21 01:33:50;;;;;;;;;;;;;;;;;;7366851;19;802;-66
2022/12/21 01:36:18;;;;;;;;;;;;;;;;;;7369585;19;827;-66
2022/12/21 01:38:46;;;;;;;;;;;;;;;;;;7366344;19;1943;-66
2022/12/21 01:41:14;;;;;;;;;;;;;;;;;;7369118;19;861;-66
2022/12/21 01:43:42;;;;;;;;;;;;;;;;;;7368685;19;794;-67
2022/12/21 01:46:10;;;;;;;;;;;;;;;;;;7368262;19;872;-67
2022/12/21 01:48:38;;;;;;;;;;;;;;;;;;7365892;19;1851;-67
2022/12/21 01:51:06;;;;;;;;;;;;;;;;;;7367884;19;859;-67
2022/12/21 01:53:36;;;;;;;;;;;;;;;;;;7366685;19;876;-67
2022/12/21 01:56:04;;;;;;;;;;;;;;;;;;7367962;19;895;-67
2022/12/21 01:58:32;;;;;;;;;;;;;;;;;;7364822;19;1322;-68
2022/12/21 02:01:00;;;;;;;;;;;;;;;;;;7365931;19;861;-68
2022/12/21 02:03:28;;;;;;;;;;;;;;;;;;7367402;19;925;-68
2022/12/21 02:05:59;;;;;;;;;;;;;;;;;;7367357;19;896;-67
2022/12/21 02:08:27;;;;;;;;;;;;;;;;;;7363073;19;1833;-67
2022/12/21 02:10:56;;;;;;;;;;;;;;;;;;7370212;19;2156;-69
2022/12/21 02:13:24;;;;;;;;;;;;;;;;;;7366715;19;826;-70
2022/12/21 02:15:52;;;;;;;;;;;;;;;;;;7366979;19;786;-68
2022/12/21 02:18:20;;;;;;;;;;;;;;;;;;7370142;19;1863;-68
2022/12/21 02:20:48;;;;;;;;;;;;;;;;;;7365832;19;784;-68
2022/12/21 02:23:17;;;;;;;;;;;;;;;;;;7365438;19;830;-68
2022/12/21 02:25:45;;;;;;;;;;;;;;;;;;7366963;19;815;-68
2022/12/21 02:28:13;;;;;;;;;;;;;;;;;;7365057;19;1847;-67
2022/12/21 02:30:41;;;;;;;;;;;;;;;;;;7366881;19;803;-68
2022/12/21 02:33:09;;;;;;;;;;;;;;;;;;7365625;19;902;-69
2022/12/21 02:35:37;;;;;;;;;;;;;;;;;;7365801;19;810;-67
2022/12/21 02:38:06;;;;;;;;;;;;;;;;;;7367037;19;1871;-68
2022/12/21 02:40:36;;;;;;;;;;;;;;;;;;7359939;19;978;-68
2022/12/21 02:45:45;;;;;;;;;;;;;;;;;;7368646;19;1561;-69
2022/12/21 02:48:14;;;;;;;;;;;;;;;;;;7364189;19;1865;-68
2022/12/21 02:50:42;;;;;;;;;;;;;;;;;;7365880;19;843;-68
2022/12/21 02:53:10;;;;;;;;;;;;;;;;;;7368472;19;1834;-68
2022/12/21 02:55:38;;;;;;;;;;;;;;;;;;7365659;19;902;-69
2022/12/21 02:58:07;;;;;;;;;;;;;;;;;;7364955;19;2130;-69
2022/12/21 03:00:35;;;;;;;;;;;;;;;;;;7364997;19;873;-69
2022/12/21 03:05:49;;;;;;;;;;;;;;;;;;7364169;19;1139;-71
2022/12/21 03:08:17;;;;;;;;;;;;;;;;;;7365313;19;1873;-70
2022/12/21 03:10:46;;;;;;;;;;;;;;;;;;7366919;19;816;-70
2022/12/21 03:13:16;;;;;;;;;;;;;;;;;;7365958;19;797;-69
2022/12/21 03:15:44;;;;;;;;;;;;;;;;;;7366265;19;814;-69
2022/12/21 03:18:12;;;;;;;;;;;;;;;;;;7364558;19;1274;-69
2022/12/21 03:20:40;;;;;;;;;;;;;;;;;;7368661;19;1886;-68
2022/12/21 03:23:08;;;;;;;;;;;;;;;;;;7366058;19;864;-69
2022/12/21 03:25:37;;;;;;;;;;;;;;;;;;7366165;19;842;-69
2022/12/21 03:28:05;;;;;;;;;;;;;;;;;;7362971;19;1837;-68
2022/12/21 03:30:33;;;;;;;;;;;;;;;;;;7364538;19;834;-68
2022/12/21 03:33:01;;;;;;;;;;;;;;;;;;7363456;19;821;-67
2022/12/21 03:35:29;;;;;;;;;;;;;;;;;;7366375;19;2177;-70
2022/12/21 03:37:57;;;;;;;;;;;;;;;;;;7363283;19;1294;-70
2022/12/21 03:40:26;;;;;;;;;;;;;;;;;;7365622;19;866;-69
2022/12/21 03:42:54;;;;;;;;;;;;;;;;;;7365047;19;873;-69
2022/12/21 03:45:22;;;;;;;;;;;;;;;;;;7364265;19;894;-70
2022/12/21 03:47:50;;;;;;;;;;;;;;;;;;7363140;19;1853;-69
2022/12/21 03:50:18;;;;;;;;;;;;;;;;;;7366230;19;742;-69
2022/12/21 03:52:46;;;;;;;;;;;;;;;;;;7369814;19;848;-69
2022/12/21 03:55:15;;;;;;;;;;;;;;;;;;7373155;19;782;-69
2022/12/21 03:57:43;;;;;;;;;;;;;;;;;;7372059;19;1360;-69
2022/12/21 04:00:11;;;;;;;;;;;;;;;;;;7373693;19;849;-69
2022/12/21 04:02:42;;;;;;;;;;;;;;;;;;7377323;19;1680;-69
2022/12/21 04:05:10;;;;;;;;;;;;;;;;;;7375282;19;1851;-68
2022/12/21 04:07:38;;;;;;;;;;;;;;;;;;7369979;19;1837;-69
2022/12/21 04:10:07;;;;;;;;;;;;;;;;;;7371573;19;862;-68
2022/12/21 04:12:41;;;;;;;;;;;;;;;;;;7373677;19;822;-68
2022/12/21 04:15:09;;;;;;;;;;;;;;;;;;7373289;19;777;-69
2022/12/21 04:17:37;;;;;;;;;;;;;;;;;;7370887;19;858;-68
2022/12/21 04:20:03;;;;;;;;;;;;;;;;;;7372654;19;886;-68
2022/12/21 04:30:45;;;;;;;;;;;;;;;;;;7369367;19;968;-66
2022/12/21 04:33:13;;;;;;;;;;;;;;;;;;7371802;19;1826;-67
2022/12/21 04:37:30;;;;;;;;;;;;;;;;;;7371998;19;829;-66
2022/12/21 04:38:27;;;;;;;;;;;;;;;;;;7368310;19;1180;-67
2022/12/21 04:40:56;;;;;;;;;;;;;;;;;;7371363;19;834;-65
2022/12/21 04:43:24;;;;;;;;;;;;;;;;;;7370302;19;807;-67
2022/12/21 04:45:52;;;;;;;;;;;;;;;;;;7370152;19;882;-67
2022/12/21 04:48:20;;;;;;;;;;;;;;;;;;7370147;19;1847;-67
2022/12/21 04:50:48;;;;;;;;;;;;;;;;;;7369634;19;709;-68
2022/12/21 04:53:16;;;;;;;;;;;;;;;;;;7370379;19;806;-67
2022/12/21 04:55:45;;;;;;;;;;;;;;;;;;7370111;19;819;-67
2022/12/21 04:58:13;;;;;;;;;;;;;;;;;;7368045;19;1306;-66
2022/12/21 05:00:41;;;;;;;;;;;;;;;;;;7368063;19;863;-66
2022/12/21 05:03:09;;;;;;;;;;;;;;;;;;7369891;19;1829;-67
2022/12/21 05:05:37;;;;;;;;;;;;;;;;;;7368537;19;862;-66
2022/12/21 05:08:05;;;;;;;;;;;;;;;;;;7367654;19;1869;-67
2022/12/21 05:10:33;;;;;;;;;;;;;;;;;;7371159;19;830;-66
2022/12/21 05:13:02;;;;;;;;;;;;;;;;;;7370193;19;811;-66
2022/12/21 05:15:30;;;;;;;;;;;;;;;;;;7371192;19;744;-65
2022/12/21 05:17:58;;;;;;;;;;;;;;;;;;7368854;19;1278;-67
2022/12/21 05:20:27;;;;;;;;;;;;;;;;;;7369055;19;850;-65
2022/12/21 05:22:55;;;;;;;;;;;;;;;;;;7369665;19;839;-67
2022/12/21 05:25:23;;;;;;;;;;;;;;;;;;7370301;19;801;-66
2022/12/21 05:27:51;;;;;;;;;;;;;;;;;;7368874;19;1364;-66
2022/12/21 05:30:19;;;;;;;;;;;;;;;;;;7367326;19;1857;-69
2022/12/21 05:32:47;;;;;;;;;;;;;;;;;;7372477;19;1955;-68
2022/12/21 05:35:16;;;;;;;;;;;;;;;;;;7369119;19;846;-67
2022/12/21 05:37:44;;;;;;;;;;;;;;;;;;7367559;19;1298;-66
2022/12/21 05:40:12;;;;;;;;;;;;;;;;;;7368659;19;813;-65
2022/12/21 05:42:40;;;;;;;;;;;;;;;;;;7367591;19;869;-66
2022/12/21 05:45:08;;;;;;;;;;;;;;;;;;7367899;19;1924;-66
2022/12/21 05:47:36;;;;;;;;;;;;;;;;;;7367913;19;854;-68
2022/12/21 05:50:05;;;;;;;;;;;;;;;;;;7364265;19;1830;-66
2022/12/21 05:52:33;;;;;;;;;;;;;;;;;;7367555;19;802;-66
2022/12/21 05:55:01;;;;;;;;;;;;;;;;;;7368899;19;950;-66
2022/12/21 05:57:29;;;;;;;;;;;;;;;;;;7367429;19;802;-67
2022/12/21 05:59:57;;;;;;;;;;;;;;;;;;7364479;19;1341;-67
2022/12/21 06:02:25;;;;;;;;;;;;;;;;;;7371804;19;1890;-67
2022/12/21 06:04:53;;;;;;;;;;;;;;;;;;7367874;19;794;-67
2022/12/21 06:07:22;;;;;;;;;;;;;;;;;;7367072;19;862;-66
2022/12/21 06:09:50;;;;;;;;;;;;;;;;;;7363682;19;1845;-66
2022/12/21 06:12:18;;;;;;;;;;;;;;;;;;7367589;19;810;-66
2022/12/21 06:14:46;;;;;;;;;;;;;;;;;;7365179;19;807;-66
2022/12/21 06:17:14;;;;;;;;;;;;;;;;;;7366298;19;833;-66
2022/12/21 06:19:42;;;;;;;;;;;;;;;;;;7363038;19;1263;-66
2022/12/21 06:22:10;;;;;;;;;;;;;;;;;;7368245;19;823;-66
2022/12/21 06:24:39;;;;;;;;;;;;;;;;;;7366265;19;905;-68
2022/12/21 06:27:07;;;;;;;;;;;;;;;;;;7366802;19;726;-67
2022/12/21 06:29:35;;;;;;;;;;;;;;;;;;7366124;19;1868;-68
2022/12/21 06:32:03;;;;;;;;;;;;;;;;;;7367465;19;841;-68
2022/12/21 06:34:31;;;;;;;;;;;;;;;;;;7366214;19;861;-67
2022/12/21 06:36:59;;;;;;;;;;;;;;;;;;7366912;19;806;-67
2022/12/21 06:39:28;;;;;;;;;;;;;;;;;;7363016;19;1325;-67
2022/12/21 06:41:56;;;;;;;;;;;;;;;;;;7366498;19;895;-67
2022/12/21 06:44:24;;;;;;;;;;;;;;;;;;7364348;19;839;-67
2022/12/21 06:46:52;;;;;;;;;;;;;;;;;;7366308;19;863;-67
2022/12/21 06:49:20;;;;;;;;;;;;;;;;;;7364926;19;1889;-67
2022/12/21 06:51:48;;;;;;;;;;;;;;;;;;7365834;19;838;-68
2022/12/21 06:54:16;;;;;;;;;;;;;;;;;;7366289;19;1010;-67
2022/12/21 06:56:44;;;;;;;;;;;;;;;;;;7366946;19;857;-67
2022/12/21 06:59:13;;;;;;;;;;;;;;;;;;7364077;19;1853;-67
2022/12/21 07:01:41;;;;;;;;;;;;;;;;;;7369314;19;2124;-66
2022/12/21 07:04:09;;;;;;;;;;;;;;;;;;7365726;19;821;-67
2022/12/21 07:06:37;;;;;;;;;;;;;;;;;;7366897;19;815;-66
2022/12/21 07:09:05;;;;;;;;;;;;;;;;;;7364467;19;1861;-66
2022/12/21 07:11:34;;;;;;;;;;;;;;;;;;7366156;19;822;-67
2022/12/21 07:14:02;;;;;;;;;;;;;;;;;;7366887;19;814;-66
2022/12/21 07:16:30;;;;;;;;;;;;;;;;;;7366557;19;791;-67
2022/12/21 07:18:58;;;;;;;;;;;;;;;;;;7363676;19;1296;-69
2022/12/21 07:21:26;;;;;;;;;;;;;;;;;;7366847;19;830;-68
2022/12/21 07:23:54;;;;;;;;;;;;;;;;;;7365868;19;1005;-70
2022/12/21 07:26:23;;;;;;;;;;;;;;;;;;7364654;19;850;-67
2022/12/21 07:28:51;;;;;;;;;;;;;;;;;;7363500;19;1838;-69
2022/12/21 07:31:19;;;;;;;;;;;;;;;;;;7366308;19;829;-67
2022/12/21 07:33:47;;;;;;;;;;;;;;;;;;7366775;19;865;-68
2022/12/21 07:36:15;;;;;;;;;;;;;;;;;;7365131;19;861;-67
2022/12/21 07:38:43;;;;;;;;;;;;;;;;;;7364182;19;1338;-67
2022/12/21 07:41:12;;;;;;;;;;;;;;;;;;7365479;19;817;-67
2022/12/21 07:43:40;;;;;;;;;;;;;;;;;;7363694;19;851;-66
2022/12/21 07:46:10;;;;;;;;;;;;;;;;;;7364826;19;745;-68
2022/12/21 07:48:38;;;;;;;;;;;;;;;;;;7363830;19;1357;-69
2022/12/21 07:51:06;;;;;;;;;;;;;;;;;;7360080;19;1861;-68
2022/12/21 07:53:34;;;;;;;;;;;;;;;;;;7365791;19;842;-68
2022/12/21 07:56:03;;;;;;;;;;;;;;;;;;7366258;19;751;-69
2022/12/21 07:58:31;;;;;;;;;;;;;;;;;;7367193;19;1823;-69
2022/12/21 08:00:59;;;;;;;;;;;;;;;;;;7366150;19;859;-70
2022/12/21 08:03:27;;;;;;;;;;;;;;;;;;7366364;19;853;-67
2022/12/21 08:05:55;;;;;;;;;;;;;;;;;;7364427;19;799;-69
2022/12/21 08:08:24;;;;;;;;;;;;;;;;;;7364157;19;1302;-69
2022/12/21 08:10:52;;;;;;;;;;;;;;;;;;7362855;19;1830;-68
2022/12/21 08:13:20;;;;;;;;;;;;;;;;;;7365006;19;800;-66
2022/12/21 08:15:48;;;;;;;;;;;;;;;;;;7365053;19;818;-67
2022/12/21 08:18:16;;;;;;;;;;;;;;;;;;7363905;19;1219;-68
2022/12/21 08:20:45;;;;;;;;;;;;;;;;;;7364220;19;838;-68
2022/12/21 08:23:13;;;;;;;;;;;;;;;;;;7365770;19;857;-66
2022/12/21 08:25:41;;;;;;;;;;;;;;;;;;7367920;19;1928;-66
2022/12/21 08:28:09;;;;;;;;;;;;;;;;;;7364008;19;1385;-69
2022/12/21 08:30:38;;;;;;;;;;;;;;;;;;7362980;19;1834;-67
2022/12/21 08:33:06;;;;;;;;;;;;;;;;;;7365290;19;806;-68
2022/12/21 08:35:34;;;;;;;;;;;;;;;;;;7368991;19;1656;-68
2022/12/21 08:38:02;;;;;;;;;;;;;;;;;;7363373;19;1211;-71
2022/12/21 08:40:30;;;;;;;;;;;;;;;;;;7370247;19;830;-68
2022/12/21 08:42:58;;;;;;;;;;;;;;;;;;7373021;19;850;-71
2022/12/21 08:45:27;;;;;;;;;;;;;;;;;;7372730;19;821;-70
2022/12/21 08:47:55;;;;;;;;;;;;;;;;;;7371475;19;1325;-69
2022/12/21 08:50:23;;;;;;;;;;;;;;;;;;7370406;19;1837;-68
2022/12/21 08:52:51;;;;;;;;;;;;;;;;;;7371794;19;822;-68
2022/12/21 08:55:19;;;;;;;;;;;;;;;;;;7372070;19;1684;-68
2022/12/21 08:57:47;;;;;;;;;;;;;;;;;;7369222;19;1291;-67
2022/12/21 09:00:16;;;;;;;;;;;;;;;;;;7371031;19;736;-67
2022/12/21 09:02:44;;;;;;;;;;;;;;;;;;7372466;19;818;-68
2022/12/21 09:05:12;;;;;;;;;;;;;;;;;;7372548;19;2120;-67
2022/12/21 09:07:40;;;;;;;;;;;;;;;;;;7372086;19;807;-72
2022/12/21 09:10:09;;;;;;;;;;;;;;;;;;7371511;19;1842;-68
2022/12/21 09:12:37;;;;;;;;;;;;;;;;;;7372003;19;802;-68
2022/12/21 09:15:05;;;;;;;;;;;;;;;;;;7372027;19;812;-68
2022/12/21 09:17:33;;;;;;;;;;;;;;;;;;7372095;19;873;-69
2022/12/21 09:20:01;;;;;;;;;;;;;;;;;;7371244;19;1325;-68
2022/12/21 09:22:30;;;;;;;;;;;;;;;;;;7370079;19;1876;-68
2022/12/21 09:24:58;;;;;;;;;;;;;;;;;;7371327;19;799;-69
2022/12/21 09:27:27;;;;;;;;;;;;;;;;;;7370481;19;777;-67
2022/12/21 09:29:55;;;;;;;;;;;;;;;;;;7368083;19;1867;-67
2022/12/21 09:32:23;;;;;;;;;;;;;;;;;;7370355;19;814;-68
2022/12/21 09:34:51;;;;;;;;;;;;;;;;;;7373275;19;1746;-69
2022/12/21 09:37:19;;;;;;;;;;;;;;;;;;7370789;19;869;-68
2022/12/21 09:39:48;;;;;;;;;;;;;;;;;;7367541;19;1341;-68
2022/12/21 09:42:16;;;;;;;;;;;;;;;;;;7370946;19;732;-68
2022/12/21 09:44:44;;;;;;;;;;;;;;;;;;7369820;19;790;-67
2022/12/21 09:47:12;;;;;;;;;;;;;;;;;;7369950;19;937;-68
2022/12/21 09:49:40;;;;;;;;;;;;;;;;;;7365558;19;1857;-69
2022/12/21 09:52:09;;;;;;;;;;;;;;;;;;7369526;19;779;-68
2022/12/21 09:54:37;;;;;;;;;;;;;;;;;;7372423;19;1887;-68
2022/12/21 09:57:05;;;;;;;;;;;;;;;;;;7367905;19;828;-69
2022/12/21 09:59:33;;;;;;;;;;;;;;;;;;7367162;19;1348;-68
2022/12/21 10:02:01;;;;;;;;;;;;;;;;;;7369355;19;790;-69
2022/12/21 10:04:29;;;;;;;;;;;;;;;;;;7367613;19;798;-69
2022/12/21 10:06:58;;;;;;;;;;;;;;;;;;7368424;19;850;-68
2022/12/21 10:09:26;;;;;;;;;;;;;;;;;;7366536;19;1837;-69
2022/12/21 10:11:54;;;;;;;;;;;;;;;;;;7368958;19;858;-69
2022/12/21 10:14:23;;;;;;;;;;;;;;;;;;7369426;19;814;-68
2022/12/21 10:16:51;;;;;;;;;;;;;;;;;;7369584;19;814;-68
2022/12/21 10:19:19;;;;;;;;;;;;;;;;;;7366001;19;1328;-70
2022/12/21 10:21:47;;;;;;;;;;;;;;;;;;7371099;19;1791;-70
2022/12/21 10:24:16;;;;;;;;;;;;;;;;;;7368884;19;835;-69
2022/12/21 10:26:44;;;;;;;;;;;;;;;;;;7368455;19;856;-68
2022/12/21 10:29:12;;;;;;;;;;;;;;;;;;7365088;19;1309;-69
2022/12/21 10:31:41;;;;;;;;;;;;;;;;;;7364613;19;1809;-68
2022/12/21 10:34:09;;;;;;;;;;;;;;;;;;7367304;19;880;-68
2022/12/21 10:36:38;;;;;;;;;;;;;;;;;;7368875;19;870;-71
2022/12/21 10:39:06;;;;;;;;;;;;;;;;;;7366509;19;1270;-69
2022/12/21 10:41:34;;;;;;;;;;;;;;;;;;7367639;19;791;-70
2022/12/21 10:44:03;;;;;;;;;;;;;;;;;;7367547;19;1912;-69
2022/12/21 10:46:31;;;;;;;;;;;;;;;;;;7368604;19;811;-69
2022/12/21 10:48:59;;;;;;;;;;;;;;;;;;7365604;19;1361;-69
2022/12/21 10:51:27;;;;;;;;;;;;;;;;;;7368397;19;1839;-69
2022/12/21 10:53:55;;;;;;;;;;;;;;;;;;7369611;19;812;-68
2022/12/21 10:56:24;;;;;;;;;;;;;;;;;;7367735;19;794;-70
2022/12/21 10:58:52;;;;;;;;;;;;;;;;;;7365976;19;1278;-69
2022/12/21 11:01:20;;;;;;;;;;;;;;;;;;7366763;19;818;-69
2022/12/21 11:03:48;;;;;;;;;;;;;;;;;;7367822;19;852;-68
2022/12/21 11:06:16;;;;;;;;;;;;;;;;;;7369331;19;1853;-68
2022/12/21 11:08:44;;;;;;;;;;;;;;;;;;7366547;19;1371;-69
2022/12/21 11:11:13;;;;;;;;;;;;;;;;;;7367497;19;1882;-70
2022/12/21 11:13:41;;;;;;;;;;;;;;;;;;7365587;19;882;-70
2022/12/21 11:16:10;;;;;;;;;;;;;;;;;;7366402;19;882;-70
2022/12/21 11:18:38;;;;;;;;;;;;;;;;;;7366466;19;1330;-69
2022/12/21 11:21:06;;;;;;;;;;;;;;;;;;7367829;19;823;-69
2022/12/21 11:23:34;;;;;;;;;;;;;;;;;;7368021;19;849;-68
2022/12/21 11:26:03;;;;;;;;;;;;;;;;;;7366099;19;721;-69
2022/12/21 11:28:31;;;;;;;;;;;;;;;;;;7365345;19;1258;-69
2022/12/21 11:30:59;;;;;;;;;;;;;;;;;;7365707;19;1838;-67
2022/12/21 11:33:27;;;;;;;;;;;;;;;;;;7367802;19;812;-67
2022/12/21 11:35:56;;;;;;;;;;;;;;;;;;7367089;19;847;-67
2022/12/21 11:38:24;;;;;;;;;;;;;;;;;;7365259;19;1283;-68
2022/12/21 11:40:52;;;;;;;;;;;;;;;;;;7370684;19;1940;-68
2022/12/21 11:43:20;;;;;;;;;;;;;;;;;;7366466;19;870;-67
2022/12/21 11:45:48;;;;;;;;;;;;;;;;;;7367510;19;849;-70
2022/12/21 11:48:17;;;;;;;;;;;;;;;;;;7363904;19;1346;-69
2022/12/21 11:50:45;;;;;;;;;;;;;;;;;;7365210;19;1834;-68
2022/12/21 11:53:13;;;;;;;;;;;;;;;;;;7366857;19;856;-67
2022/12/21 11:55:41;;;;;;;;;;;;;;;;;;7366441;19;873;-67
2022/12/21 11:58:10;;;;;;;;;;;;;;;;;;7365040;19;1322;-68
2022/12/21 12:00:38;;;;;;;;;;;;;;;;;;7365059;19;901;-67
2022/12/21 12:03:06;;;;;;;;;;;;;;;;;;7370121;19;1908;-68
2022/12/21 12:05:34;;;;;;;;;;;;;;;;;;7370779;19;1894;-69
2022/12/21 12:08:03;;;;;;;;;;;;;;;;;;7362983;19;1353;-69
2022/12/21 12:10:32;;;;;;;;;;;;;;;;;;7369601;19;1864;-69
2022/12/21 12:13:00;;;;;;;;;;;;;;;;;;7368523;19;845;-69
2022/12/21 12:15:28;;;;;;;;;;;;;;;;;;7374726;19;862;-69
2022/12/21 12:17:57;;;;;;;;;;;;;;;;;;7372423;19;1353;-68
2022/12/21 12:20:25;;;;;;;;;;;;;;;;;;7373359;19;798;-69
2022/12/21 12:22:53;;;;;;;;;;;;;;;;;;7372326;19;790;-67
2022/12/21 12:25:22;;;;;;;;;;;;;;;;;;7373088;19;822;-66
2022/12/21 12:27:50;;;;;;;;;;;;;;;;;;7375119;19;1633;-67
2022/12/21 12:30:20;;;;;;;;;;;;;;;;;;7372201;19;1843;-68
2022/12/21 12:32:48;;;;;;;;;;;;;;;;;;7372060;19;841;-68
2022/12/21 12:35:16;;;;;;;;;;;;;;;;;;7371222;19;846;-67
2022/12/21 12:37:45;;;;;;;;;;;;;;;;;;7371296;19;1731;-66
2022/12/21 12:40:13;;;;;;;;;;;;;;;;;;7371916;19;767;-67
2022/12/21 12:42:41;;;;;;;;;;;;;;;;;;7371235;19;857;-69
2022/12/21 12:45:09;;;;;;;;;;;;;;;;;;7371435;19;823;-67
2022/12/21 12:47:37;;;;;;;;;;;;;;;;;;7370845;19;853;-66
2022/12/21 12:50:05;;;;;;;;;;;;;;;;;;7369018;19;1252;-67
2022/12/21 12:52:34;;;;;;;;;;;;;;;;;;7368581;19;1844;-66
2022/12/21 12:55:02;;;;;;;;;;;;;;;;;;7370624;19;871;-66
2022/12/21 12:57:30;;;;;;;;;;;;;;;;;;7370845;19;881;-67
2022/12/21 12:59:58;;;;;;;;;;;;;;;;;;7368374;19;1271;-67
2022/12/21 13:02:26;;;;;;;;;;;;;;;;;;7370157;19;767;-67
2022/12/21 13:04:54;;;;;;;;;;;;;;;;;;7371818;19;1869;-68
2022/12/21 13:07:23;;;;;;;;;;;;;;;;;;7372685;19;1950;-67
2022/12/21 13:09:51;;;;;;;;;;;;;;;;;;7367952;19;1326;-68
2022/12/21 13:12:19;;;;;;;;;;;;;;;;;;7371607;19;1973;-67
2022/12/21 13:14:47;;;;;;;;;;;;;;;;;;7374797;19;1918;-67
2022/12/21 13:17:15;;;;;;;;;;;;;;;;;;7371017;19;883;-67
2022/12/21 13:19:43;;;;;;;;;;;;;;;;;;7367992;19;1282;-69
2022/12/21 13:22:12;;;;;;;;;;;;;;;;;;7369346;19;865;-68
2022/12/21 13:24:40;;;;;;;;;;;;;;;;;;7367438;19;857;-67
2022/12/21 13:27:08;;;;;;;;;;;;;;;;;;7368504;19;842;-68
2022/12/21 13:29:36;;;;;;;;;;;;;;;;;;7367792;19;1314;-68
2022/12/21 13:32:04;;;;;;;;;;;;;;;;;;7368813;19;1833;-68
2022/12/21 13:34:32;;;;;;;;;;;;;;;;;;7369901;19;1845;-67
2022/12/21 13:37:00;;;;;;;;;;;;;;;;;;7370598;19;810;-69
2022/12/21 13:39:29;;;;;;;;;;;;;;;;;;7369026;19;1855;-68
2022/12/21 13:41:57;;;;;;;;;;;;;;;;;;7373677;19;1867;-67
2022/12/21 13:44:25;;;;;;;;;;;;;;;;;;7372430;19;1565;-67
2022/12/21 13:46:53;;;;;;;;;;;;;;;;;;7372971;19;1760;-67
2022/12/21 13:49:21;;;;;;;;;;;;;;;;;;7367845;19;1275;-67
2022/12/21 13:51:50;;;;;;;;;;;;;;;;;;7372002;19;1853;-67
2022/12/21 13:54:18;;;;;;;;;;;;;;;;;;7369822;19;830;-67
2022/12/21 13:56:46;;;;;;;;;;;;;;;;;;7369300;19;799;-67
2022/12/21 13:59:16;;;;;;;;;;;;;;;;;;7369943;19;1881;-67
2022/12/21 14:01:44;;;;;;;;;;;;;;;;;;7370597;19;755;-67
2022/12/21 14:04:12;;;;;;;;;;;;;;;;;;7370540;19;816;-67
2022/12/21 14:06:40;;;;;;;;;;;;;;;;;;7369955;19;804;-67
2022/12/21 14:09:09;;;;;;;;;;;;;;;;;;7367389;19;1307;-65
2022/12/21 14:11:37;;;;;;;;;;;;;;;;;;7368956;19;1848;-68
2022/12/21 14:14:05;;;;;;;;;;;;;;;;;;7369537;19;869;-65
2022/12/21 14:16:33;;;;;;;;;;;;;;;;;;7370048;19;822;-68
2022/12/21 14:19:01;;;;;;;;;;;;;;;;;;7365708;19;1306;-66
2022/12/21 14:21:30;;;;;;;;;;;;;;;;;;7369228;19;796;-67
2022/12/21 14:23:58;;;;;;;;;;;;;;;;;;7368784;19;834;-68
2022/12/21 14:26:26;;;;;;;;;;;;;;;;;;7368845;19;851;-68
2022/12/21 14:28:54;;;;;;;;;;;;;;;;;;7366786;19;1349;-69
2022/12/21 14:31:22;;;;;;;;;;;;;;;;;;7367611;19;1852;-68
2022/12/21 14:33:51;;;;;;;;;;;;;;;;;;7368818;19;822;-66
2022/12/21 14:36:19;;;;;;;;;;;;;;;;;;7369159;19;1012;-65
2022/12/21 14:38:47;;;;;;;;;;;;;;;;;;7366482;19;1282;-67
2022/12/21 14:41:15;;;;;;;;;;;;;;;;;;7368640;19;797;-68
2022/12/21 14:43:43;;;;;;;;;;;;;;;;;;7369136;19;808;-67
2022/12/21 14:46:12;;;;;;;;;;;;;;;;;;7369906;19;1105;-68
2022/12/21 14:48:40;;;;;;;;;;;;;;;;;;7365517;19;1248;-68
2022/12/21 14:51:08;;;;;;;;;;;;;;;;;;7367583;19;1842;-67
2022/12/21 14:53:36;;;;;;;;;;;;;;;;;;7369024;19;880;-67
2022/12/21 14:56:04;;;;;;;;;;;;;;;;;;7369234;19;739;-67
2022/12/21 14:58:33;;;;;;;;;;;;;;;;;;7366755;19;1290;-67
2022/12/21 15:01:01;;;;;;;;;;;;;;;;;;7368343;19;1925;-69
2022/12/21 15:03:29;;;;;;;;;;;;;;;;;;7371311;19;1837;-68
2022/12/21 15:05:57;;;;;;;;;;;;;;;;;;7368582;19;797;-68
2022/12/21 15:08:26;;;;;;;;;;;;;;;;;;7366022;19;1353;-69
2022/12/21 15:10:55;;;;;;;;;;;;;;;;;;7368410;19;795;-67
2022/12/21 15:13:23;;;;;;;;;;;;;;;;;;7368378;19;787;-68
2022/12/21 15:15:51;;;;;;;;;;;;;;;;;;7367948;19;1506;-68
2022/12/21 15:18:19;;;;;;;;;;;;;;;;;;7366594;19;1282;-68
2022/12/21 15:20:47;;;;;;;;;;;;;;;;;;7371313;19;1830;-69
2022/12/21 15:23:16;;;;;;;;;;;;;;;;;;7368766;19;802;-69
2022/12/21 15:25:44;;;;;;;;;;;;;;;;;;7366724;19;809;-68
2022/12/21 15:28:12;;;;;;;;;;;;;;;;;;7365884;19;1278;-67
2022/12/21 15:30:40;;;;;;;;;;;;;;;;;;7367905;19;1727;-69
2022/12/21 15:33:08;;;;;;;;;;;;;;;;;;7364472;19;1837;-69
2022/12/21 15:35:36;;;;;;;;;;;;;;;;;;7367393;19;891;-69
2022/12/21 15:38:05;;;;;;;;;;;;;;;;;;7367924;19;1880;-69
2022/12/21 15:40:33;;;;;;;;;;;;;;;;;;7366752;19;728;-68
2022/12/21 15:43:01;;;;;;;;;;;;;;;;;;7368335;19;779;-66
2022/12/21 15:45:29;;;;;;;;;;;;;;;;;;7367842;19;810;-67
2022/12/21 15:47:57;;;;;;;;;;;;;;;;;;7364127;19;1875;-67
2022/12/21 15:50:26;;;;;;;;;;;;;;;;;;7369372;19;1653;-66
2022/12/21 15:52:54;;;;;;;;;;;;;;;;;;7365014;19;1860;-67
2022/12/21 15:55:22;;;;;;;;;;;;;;;;;;7366699;19;1893;-67
2022/12/21 15:57:50;;;;;;;;;;;;;;;;;;7366090;19;1224;-67
2022/12/21 16:00:18;;;;;;;;;;;;;;;;;;7367542;19;799;-67
2022/12/21 16:02:46;;;;;;;;;;;;;;;;;;7364377;19;834;-66
2022/12/21 16:05:14;;;;;;;;;;;;;;;;;;7364439;19;799;-71
2022/12/21 16:07:43;;;;;;;;;;;;;;;;;;7365346;19;1640;-68
2022/12/21 16:10:12;;;;;;;;;;;;;;;;;;7365682;19;818;-67
2022/12/21 16:12:41;;;;;;;;;;;;;;;;;;7363608;19;1853;-69
2022/12/21 16:15:09;;;;;;;;;;;;;;;;;;7367871;19;1694;-70
2022/12/21 16:17:37;;;;;;;;;;;;;;;;;;7364989;19;865;-69
2022/12/21 16:20:05;;;;;;;;;;;;;;;;;;7362088;19;1267;-69
2022/12/21 16:22:34;;;;;;;;;;;;;;;;;;7364695;19;798;-70
2022/12/21 16:25:02;;;;;;;;;;;;;;;;;;7365526;19;826;-67
2022/12/21 16:27:30;;;;;;;;;;;;;;;;;;7365854;19;818;-67
2022/12/21 16:29:59;;;;;;;;;;;;;;;;;;7362282;19;1329;-69
2022/12/21 16:32:27;;;;;;;;;;;;;;;;;;7363812;19;1883;-68
2022/12/21 16:34:56;;;;;;;;;;;;;;;;;;7364306;19;1944;-69
2022/12/21 16:37:24;;;;;;;;;;;;;;;;;;7363534;19;786;-69
2022/12/21 16:39:52;;;;;;;;;;;;;;;;;;7361541;19;1243;-69
2022/12/21 16:42:20;;;;;;;;;;;;;;;;;;7364107;19;820;-67
2022/12/21 16:44:48;;;;;;;;;;;;;;;;;;7365087;19;1854;-67
2022/12/21 16:47:16;;;;;;;;;;;;;;;;;;7364470;19;830;-68
2022/12/21 16:49:45;;;;;;;;;;;;;;;;;;7361651;19;1301;-67
2022/12/21 16:52:14;;;;;;;;;;;;;;;;;;7363517;19;1864;-68
2022/12/21 16:54:42;;;;;;;;;;;;;;;;;;7364920;19;818;-66
2022/12/21 16:57:10;;;;;;;;;;;;;;;;;;7368190;19;1857;-67
2022/12/21 16:59:39;;;;;;;;;;;;;;;;;;7361709;19;1325;-67
2022/12/21 17:02:07;;;;;;;;;;;;;;;;;;7371008;19;784;-68
2022/12/21 17:04:35;;;;;;;;;;;;;;;;;;7370698;19;883;-67
2022/12/21 17:07:05;;;;;;;;;;;;;;;;;;7371178;19;843;-67
2022/12/21 17:09:33;;;;;;;;;;;;;;;;;;7368395;19;1322;-68
2022/12/21 17:12:01;;;;;;;;;;;;;;;;;;7369634;19;1834;-67
2022/12/21 17:14:29;;;;;;;;;;;;;;;;;;7369554;19;1519;-67
2022/12/21 17:16:58;;;;;;;;;;;;;;;;;;7372153;19;1730;-67
2022/12/21 17:19:26;;;;;;;;;;;;;;;;;;7366394;19;1359;-68
2022/12/21 17:21:54;;;;;;;;;;;;;;;;;;7370255;19;1897;-68
2022/12/21 17:24:22;;;;;;;;;;;;;;;;;;7373604;19;1866;-67
2022/12/21 17:26:50;;;;;;;;;;;;;;;;;;7370153;19;929;-68
2022/12/21 17:29:18;;;;;;;;;;;;;;;;;;7367626;19;1282;-68
2022/12/21 17:31:47;;;;;;;;;;;;;;;;;;7371811;19;1874;-66
2022/12/21 17:34:15;;;;;;;;;;;;;;;;;;7370245;19;787;-69